Challans Heliport

FR-0164 · Vandea, Paesi della Loira, Francia

Storia di METAR FR-0164 · Challans Heliport

Di seguito sono riportati i METAR degli ultimi giorni. Seleziona un anno per sfogliare i METAR più vecchi, dall'anno 2007 in poi.

15 luglio 2024

Tempo Codice Tempo meteorologico Temp. Vista Base nuvolosa Vento METAR/SPECI
01:30
V
14 °C 10 km+ - Var Var 2 kt METAR LFRS 142330Z AUTO VRB02KT CAVOK 14/13 Q1011 NOSIG
01:00
V
14 °C 10 km+ - 360° 360° 0 kt METAR LFRS 142300Z AUTO 00000KT CAVOK 14/13 Q1012 NOSIG
00:30
V
15 °C 10 km+ - 360° 360° 0 kt METAR LFRS 142230Z AUTO 00000KT CAVOK 15/13 Q1012 NOSIG
00:00
V
15 °C 10 km+ - 360° 360° 0 kt METAR LFRS 142200Z AUTO 00000KT CAVOK 15/13 Q1012 NOSIG

14 luglio 2024

Tempo Codice Tempo meteorologico Temp. Vista Base nuvolosa Vento METAR/SPECI
23:30
V
16 °C 10 km+ - 300° 300° 3 kt METAR LFRS 142130Z AUTO 30003KT CAVOK 16/13 Q1012 NOSIG
23:00
V
17 °C 10 km+ - 280° 280° 4 kt METAR LFRS 142100Z AUTO 28004KT CAVOK 17/13 Q1012 NOSIG
22:30
V
17 °C 10 km+ - 280° 280° 4 kt METAR LFRS 142030Z AUTO 28004KT CAVOK 17/14 Q1012 NOSIG
22:00
V
18 °C 10 km+ - 270° 270° 4 kt METAR LFRS 142000Z AUTO 27004KT CAVOK 18/14 Q1012 NOSIG
21:30
V
20 °C 10 km+ - 270° 270° 3 kt METAR LFRS 141930Z AUTO 27003KT CAVOK 20/14 Q1012 NOSIG
21:00
V
21 °C 10 km+ - 260° 260° 5 kt METAR LFRS 141900Z AUTO 26005KT CAVOK 21/15 Q1012 NOSIG
20:30
V
21 °C 10 km+ - 260° 260° 6 kt METAR LFRS 141830Z AUTO 26006KT CAVOK 21/15 Q1012 NOSIG
20:00
V
22 °C 10 km+ - 260° 260° 6 kt METAR LFRS 141800Z AUTO 26006KT 210V290 CAVOK 22/15 Q1012 NOSIG
19:30
V
22 °C 10 km+ - 260° 260° 7 kt METAR LFRS 141730Z AUTO 26007KT 220V280 CAVOK 22/14 Q1012 NOSIG
19:00
V
23 °C 10 km+ - 240° 240° 6 kt METAR LFRS 141700Z AUTO 24006KT 210V300 CAVOK 23/14 Q1012 NOSIG
18:30
V
23 °C 10 km+ - 240° 240° 7 kt METAR LFRS 141630Z AUTO 24007KT 200V280 9999 FEW036 23/15 Q1012 NOSIG
18:00
V
23 °C 10 km+ - 220° 220° 7 kt METAR LFRS 141600Z AUTO 22007KT 160V270 CAVOK 23/14 Q1012 NOSIG
17:30
V
23 °C 10 km+ - 240° 240° 8 kt METAR LFRS 141530Z AUTO 24008KT 190V270 CAVOK 23/14 Q1012 NOSIG
17:00
V
24 °C 10 km+ - 220° 220° 8 kt METAR LFRS 141500Z AUTO 22008KT 180V260 9999 FEW038 24/15 Q1012 NOSIG
16:30
V
23 °C 10 km+ 9.600 ft 230° 230° 6 kt METAR LFRS 141430Z AUTO 23006KT 160V280 9999 FEW039 BKN096 23/14 Q1012 NOSIG
16:00
V
23 °C 10 km+ - Var Var 6 kt METAR LFRS 141400Z AUTO VRB06KT 9999 FEW038 SCT096 23/15 Q1012 NOSIG
15:30
V
23 °C 10 km+ - 230° 230° 6 kt METAR LFRS 141330Z AUTO 23006KT 150V300 9999 FEW037 23/15 Q1013 NOSIG
15:00
V
23 °C 10 km+ 10.000 ft 240° 240° 7 kt METAR LFRS 141300Z AUTO 24007KT 190V280 9999 FEW036 BKN100 23/14 Q1013 NOSIG
14:30
V
22 °C 10 km+ 10.000 ft 230° 230° 7 kt METAR LFRS 141230Z AUTO 23007KT 170V270 9999 FEW032 OVC100 22/14 Q1013 NOSIG
14:00
V
22 °C 10 km+ 13.000 ft 230° 230° 6 kt METAR LFRS 141200Z AUTO 23006KT 120V270 9999 FEW029 OVC130 22/14 Q1013 NOSIG
13:30
V
21 °C 10 km+ 13.000 ft 220° 220° 7 kt METAR LFRS 141130Z AUTO 22007KT 150V290 9999 FEW030 SCT100 BKN130 21/14 Q1013 NOSIG
13:00
V
21 °C 10 km+ - Var Var 3 kt METAR LFRS 141100Z AUTO VRB03KT CAVOK 21/14 Q1012 NOSIG
12:30
V
19 °C 10 km+ - 140° 140° 3 kt METAR LFRS 141030Z AUTO 14003KT 060V200 CAVOK 19/14 Q1012 NOSIG
12:00
V
17 °C 10 km+ 9.600 ft 110° 110° 4 kt METAR LFRS 141000Z AUTO 11004KT 080V160 9999 FEW032 OVC096 17/14 Q1012 NOSIG
11:30
V
16 °C 10 km+ 10.000 ft 130° 130° 3 kt METAR LFRS 140930Z AUTO 13003KT 090V170 9999 -RA FEW033 OVC100 16/13 Q1013 NOSIG
11:00
V
15 °C 10 km+ 9.800 ft Var Var 2 kt METAR LFRS 140900Z AUTO VRB02KT 9999 FEW034 OVC098 15/12 Q1013 NOSIG
10:30
V
15 °C 10 km+ 4.900 ft 360° 360° 0 kt METAR LFRS 140830Z AUTO 00000KT 9999 BKN049 BKN056 BKN100 15/13 Q1013 NOSIG
10:00
V
15 °C 10 km+ 4.700 ft Var Var 2 kt METAR LFRS 140800Z AUTO VRB02KT 9999 OVC047 15/13 Q1013 NOSIG
09:30
V
14 °C 10 km+ 4.500 ft 360° 360° 0 kt METAR LFRS 140730Z AUTO 00000KT 9999 OVC045 14/13 Q1013 NOSIG
09:00
V
13 °C 10 km+ 4.500 ft 360° 360° 0 kt METAR LFRS 140700Z AUTO 00000KT 9999 BKN045 OVC170 13/13 Q1012 NOSIG
08:30
V
13 °C 10 km+ 19.000 ft 310° 310° 1 kt METAR LFRS 140630Z AUTO 31001KT 9999 FEW045 OVC190 13/12 Q1012 NOSIG
08:00
V
12 °C 10 km+ - 360° 360° 0 kt METAR LFRS 140600Z AUTO 00000KT CAVOK 12/12 Q1012 NOSIG
07:30
V
12 °C 10 km+ - Var Var 1 kt METAR LFRS 140530Z AUTO VRB01KT CAVOK 12/11 Q1012 NOSIG
07:00
V
11 °C 9 km - 310° 310° 1 kt METAR LFRS 140500Z AUTO 31001KT 9000 NSC 11/11 Q1012 TEMPO 0500 FG
06:30
I
10 °C 3,1 km - Var Var 2 kt METAR LFRS 140430Z AUTO VRB02KT 8000 3100 NSC 10/10 Q1012 TEMPO 0500 FG
06:00
L
10 °C 1,2 km - Var Var 2 kt METAR LFRS 140400Z AUTO VRB02KT 7000 1200 R03/2100D R21/P5000 NSC 10/10 Q1012 TEMPO 0500 FG
05:30
V
10 °C 10 km+ - 360° 360° 0 kt METAR LFRS 140330Z AUTO 00000KT CAVOK 10/10 Q1012 TEMPO 0500 FG
05:00
I
10 °C 1,6 km - Var Var 1 kt METAR LFRS 140300Z AUTO VRB01KT 9999 1600 NSC 10/10 Q1012 TEMPO 0500 FG
04:30
I
11 °C 1,7 km - 150° 150° 2 kt METAR LFRS 140230Z AUTO 15002KT 8000 1700 NSC 11/10 Q1012 TEMPO 0500 FG
04:00
L
10 °C 650 m - 180° 180° 3 kt METAR LFRS 140200Z AUTO 18003KT 8000 0650 R03/3100D R21/P5000 BCFG NSC 10/10 Q1013 TEMPO 0500 FG
03:30
V
11 °C 10 km+ - 200° 200° 2 kt METAR LFRS 140130Z AUTO 20002KT CAVOK 11/10 Q1013 TEMPO 3000 BR
03:00
I
11 °C 3,4 km - 360° 360° 0 kt METAR LFRS 140100Z AUTO 00000KT 9999 3400 NSC 11/10 Q1013 NOSIG
02:30
V
11 °C 10 km+ - 360° 360° 0 kt METAR LFRS 140030Z AUTO 00000KT CAVOK 11/10 Q1013 NOSIG
02:00
V
12 °C 10 km+ - Var Var 2 kt METAR LFRS 140000Z AUTO VRB02KT CAVOK 12/11 Q1013 NOSIG
01:30
V
12 °C 10 km+ - 040° 040° 2 kt METAR LFRS 132330Z AUTO 04002KT CAVOK 12/12 Q1014 NOSIG
01:00
V
12 °C 10 km+ - 360° 360° 0 kt METAR LFRS 132300Z AUTO 00000KT CAVOK 12/11 Q1014 NOSIG
00:30
V
12 °C 10 km+ - 260° 260° 3 kt METAR LFRS 132230Z AUTO 26003KT CAVOK 12/11 Q1014 NOSIG
00:00
V
13 °C 10 km+ - Var Var 2 kt METAR LFRS 132200Z AUTO VRB02KT CAVOK 13/10 Q1014 NOSIG

13 luglio 2024

Tempo Codice Tempo meteorologico Temp. Vista Base nuvolosa Vento METAR/SPECI
23:30
V
14 °C 10 km+ - 270° 270° 3 kt METAR LFRS 132130Z AUTO 27003KT CAVOK 14/11 Q1014 NOSIG
23:00
V
14 °C 10 km+ - 290° 290° 4 kt METAR LFRS 132100Z AUTO 29004KT CAVOK 14/11 Q1014 NOSIG
22:30
V
15 °C 10 km+ - 300° 300° 5 kt METAR LFRS 132030Z AUTO 30005KT 260V320 CAVOK 15/11 Q1014 NOSIG
22:00
V
16 °C 10 km+ - 290° 290° 6 kt METAR LFRS 132000Z AUTO 29006KT 260V330 CAVOK 16/11 Q1014 NOSIG
21:30
V
17 °C 10 km+ - 270° 270° 7 kt METAR LFRS 131930Z AUTO 27007KT CAVOK 17/11 Q1014 NOSIG
21:00
V
18 °C 10 km+ - 270° 270° 8 kt METAR LFRS 131900Z AUTO 27008KT CAVOK 18/10 Q1014 NOSIG
20:30
V
19 °C 10 km+ - 260° 260° 8 kt METAR LFRS 131830Z AUTO 26008KT CAVOK 19/10 Q1014 NOSIG
20:00
V
20 °C 10 km+ - 260° 260° 8 kt METAR LFRS 131800Z AUTO 26008KT CAVOK 20/10 Q1014 NOSIG
19:30
V
20 °C 10 km+ - 270° 270° 8 kt METAR LFRS 131730Z AUTO 27008KT CAVOK 20/11 Q1014 NOSIG
19:00
V
21 °C 10 km+ - 280° 280° 7 kt METAR LFRS 131700Z AUTO 28007KT 240V330 CAVOK 21/11 Q1013 NOSIG
18:30
V
21 °C 10 km+ - 280° 280° 6 kt METAR LFRS 131630Z AUTO 28006KT 250V330 CAVOK 21/10 Q1013 NOSIG
18:00
V
21 °C 10 km+ - 300° 300° 6 kt METAR LFRS 131600Z AUTO 30006KT 250V330 CAVOK 21/11 Q1014 NOSIG
17:30
V
21 °C 10 km+ - 290° 290° 7 kt METAR LFRS 131530Z AUTO 29007KT 210V350 CAVOK 21/12 Q1014 NOSIG
17:00
V
20 °C 10 km+ - 270° 270° 5 kt METAR LFRS 131500Z AUTO 27005KT 230V310 9999 FEW042 20/10 Q1014 NOSIG
16:30
V
21 °C 10 km+ 5.400 ft 270° 270° 8 kt METAR LFRS 131430Z AUTO 27008KT 220V320 9999 SCT043 BKN054 BKN064 21/12 Q1014 NOSIG
16:00
V
21 °C 10 km+ 6.200 ft 290° 290° 6 kt METAR LFRS 131400Z AUTO 29006KT 230V340 9999 SCT039 SCT045 BKN062 21/12 Q1015 NOSIG
15:30
V
20 °C 10 km+ 6.400 ft 300° 300° 6 kt METAR LFRS 131330Z AUTO 30006KT 260V330 9999 SCT038 SCT046 BKN064 20/12 Q1015 NOSIG
15:00
V
20 °C 10 km+ 6.400 ft Var Var 4 kt METAR LFRS 131300Z AUTO VRB04KT 9999 FEW034 SCT040 BKN064 20/12 Q1015 NOSIG
14:30
V
19 °C 10 km+ 6.200 ft 270° 270° 7 kt METAR LFRS 131230Z AUTO 27007KT 220V320 9999 SCT035 SCT043 BKN062 19/11 Q1015 NOSIG
14:00
V
20 °C 10 km+ 6.200 ft Var Var 4 kt METAR LFRS 131200Z AUTO VRB04KT 9999 FEW037 SCT049 BKN062 20/12 Q1015 NOSIG
13:30
V
20 °C 10 km+ 6.000 ft 270° 270° 7 kt METAR LFRS 131130Z AUTO 27007KT 230V360 9999 FEW036 SCT045 BKN060 20/12 Q1015 NOSIG
13:00
V
20 °C 10 km+ 5.200 ft 310° 310° 6 kt METAR LFRS 131100Z AUTO 31006KT 250V350 9999 SCT034 SCT041 BKN052 20/11 Q1015 NOSIG
12:30
V
19 °C 10 km+ 5.600 ft Var Var 3 kt METAR LFRS 131030Z AUTO VRB03KT 9999 FEW030 BKN056 19/12 Q1015 NOSIG
12:00
V
19 °C 10 km+ - Var Var 4 kt METAR LFRS 131000Z AUTO VRB04KT 9999 FEW028 SCT034 19/12 Q1015 NOSIG
11:30
V
18 °C 10 km+ - 230° 230° 4 kt METAR LFRS 130930Z AUTO 23004KT 200V280 9999 FEW022 SCT036 18/12 Q1015 NOSIG
11:00
M
17 °C 10 km+ 3.000 ft Var Var 3 kt METAR LFRS 130900Z AUTO VRB03KT 9999 SCT019 SCT025 BKN030 17/12 Q1016 NOSIG
10:30
V
16 °C 10 km+ - Var Var 3 kt METAR LFRS 130830Z AUTO VRB03KT 9999 SCT015 SCT020 16/13 Q1016 NOSIG
10:00
M
16 °C 10 km+ 1.200 ft Var Var 2 kt METAR LFRS 130800Z AUTO VRB02KT 9999 FEW006 BKN012 16/12 Q1016 BECMG SCT025
09:30
I
15 °C 10 km+ 500 ft Var Var 2 kt METAR LFRS 130730Z AUTO VRB02KT 9999 BKN005 15/13 Q1016 BECMG SCT025
09:00
L
14 °C 10 km+ 300 ft Var Var 3 kt METAR LFRS 130700Z AUTO VRB03KT 9999 BKN003 BKN007 14/13 Q1016 TEMPO 4000 BR BECMG SCT025
08:30
L
13 °C 7 km - 360° 360° 0 kt METAR LFRS 130630Z AUTO 00000KT 7000 VV/// 13/13 Q1016 TEMPO 4000 BR BECMG SCT025
08:00
L
12 °C 300 m - Var Var 2 kt METAR LFRS 130600Z AUTO VRB02KT 0550 0300 R03/2400U R21/0375N FG VV/// 12/12 Q1016 TEMPO 4000 BR BECMG SCT025
07:30
L
11 °C 300 m - 300° 300° 2 kt METAR LFRS 130530Z AUTO 30002KT 0500 0300 R03/0650U R21/0500D FG VV/// 11/11 Q1016 TEMPO 4000 BR BECMG SCT025
07:00
L
11 °C 450 m - 280° 280° 1 kt METAR LFRS 130500Z AUTO 28001KT 1100 0450 R03/0500D R21/2400U BCFG FEW003 11/11 Q1016 TEMPO 4000 BR VV///
06:30
M
11 °C 7 km - 290° 290° 2 kt METAR LFRS 130430Z AUTO 29002KT 7000 NSC 11/11 Q1016 TEMPO 4000 BR VV///
06:00
V
12 °C 10 km+ - 330° 330° 3 kt METAR LFRS 130400Z AUTO 33003KT 9999 SCT039 12/11 Q1016 TEMPO 0500 FG VV///
05:30
M
11 °C 7 km 3.700 ft 270° 270° 3 kt METAR LFRS 130330Z AUTO 27003KT 7000 FEW028 BKN037 BKN047 11/10 Q1016 TEMPO 0500 FG VV///
05:00
L
11 °C 1,4 km - 260° 260° 3 kt METAR LFRS 130300Z AUTO 26003KT 2600 1400 R03/2900U R21/2500U BR FEW003 11/11 Q1016 TEMPO 0500 FG VV///
04:30
V
11 °C 9 km - 280° 280° 3 kt METAR LFRS 130230Z AUTO 28003KT 9000 FEW003 11/10 Q1016 TEMPO 0500 FG VV///
04:00
V
12 °C 10 km+ - 360° 360° 0 kt METAR LFRS 130200Z AUTO 00000KT CAVOK 12/11 Q1016 TEMPO 0500 FG VV///
03:30
V
13 °C 10 km+ - 310° 310° 5 kt METAR LFRS 130130Z AUTO 31005KT CAVOK 13/12 Q1016 TEMPO 0500 FG VV///
03:00
V
13 °C 10 km+ - 290° 290° 4 kt METAR LFRS 130100Z AUTO 29004KT CAVOK 13/12 Q1016 NOSIG
02:30
V
12 °C 10 km+ - 260° 260° 4 kt METAR LFRS 130030Z AUTO 26004KT CAVOK 12/12 Q1016 NOSIG
02:00
V
13 °C 10 km+ - 290° 290° 2 kt METAR LFRS 130000Z AUTO 29002KT CAVOK 13/12 Q1016 NOSIG
01:30
V
13 °C 10 km+ - Var Var 2 kt METAR LFRS 122330Z AUTO VRB02KT CAVOK 13/13 Q1016 NOSIG
01:00
V
13 °C 10 km+ - 280° 280° 3 kt METAR LFRS 122300Z AUTO 28003KT CAVOK 13/13 Q1016 NOSIG
00:30
V
14 °C 10 km+ - 250° 250° 4 kt METAR LFRS 122230Z AUTO 25004KT CAVOK 14/13 Q1017 NOSIG
00:00
V
14 °C 10 km+ - 230° 230° 3 kt METAR LFRS 122200Z AUTO 23003KT CAVOK 14/13 Q1017 NOSIG

12 luglio 2024

Tempo Codice Tempo meteorologico Temp. Vista Base nuvolosa Vento METAR/SPECI
23:30
V
14 °C 10 km+ - 230° 230° 3 kt METAR LFRS 122130Z AUTO 23003KT CAVOK 14/13 Q1017 NOSIG
23:00
V
14 °C 10 km+ - 230° 230° 4 kt METAR LFRS 122100Z AUTO 23004KT CAVOK 14/13 Q1017 NOSIG
22:30
V
15 °C 10 km+ 6.200 ft 230° 230° 5 kt METAR LFRS 122030Z AUTO 23005KT 9999 FEW026 BKN062 BKN072 15/13 Q1017 NOSIG
22:00
V
15 °C 10 km+ 3.900 ft 250° 250° 5 kt METAR LFRS 122000Z AUTO 25005KT 9999 SCT024 SCT032 BKN039 15/13 Q1017 NOSIG
21:30
V
16 °C 10 km+ - 240° 240° 6 kt METAR LFRS 121930Z AUTO 24006KT CAVOK 16/13 Q1017 NOSIG
21:00
V
16 °C 10 km+ 6.000 ft 250° 250° 4 kt METAR LFRS 121900Z AUTO 25004KT 9999 FEW020 SCT049 BKN060 16/14 Q1017 TEMPO SHRA BKN030CB
20:30
V
16 °C 10 km+ 4.300 ft 250° 250° 4 kt METAR LFRS 121830Z AUTO 25004KT 210V290 9999 SCT023/// SCT030/// BKN043/// ///TCU 16/14 Q1017 TEMPO SHRA BKN030CB
20:00
L
16 °C 1,4 km 2.600 ft 280° 280° 6 kt METAR LFRS 121800Z AUTO 28006KT 250V330 7000 1400 R03/2600D R21/4400U RA BKN026/// BKN035/// BKN041/// ///TCU 16/14 Q1017 TEMPO BKN030CB
19:30
V
18 °C 10 km+ 6.000 ft 250° 250° 11 kt METAR LFRS 121730Z AUTO 25011KT 230V300 9999 FEW028/// BKN060/// BKN076/// ///TCU 18/13 Q1016 TEMPO SHRA BKN030CB
19:00
V
19 °C 10 km+ 6.600 ft 250° 250° 12 kt METAR LFRS 121700Z AUTO 25012KT 220V290 9999 FEW031/// SCT047/// BKN066/// ///CB 19/12 Q1016 BECMG SCT030
18:30
V
19 °C 10 km+ 3.800 ft 270° 270° 10 kt METAR LFRS 121630Z AUTO 27010KT 230V300 9999 SCT032/// BKN038/// BKN046/// ///TCU 19/12 Q1017 BECMG SCT030
18:00
V
19 °C 10 km+ 6.200 ft 260° 260° 10 kt METAR LFRS 121600Z AUTO 26010KT 230V290 9999 FEW028 SCT039 BKN062 19/12 Q1017 TEMPO BKN025TCU
17:30
V
19 °C 10 km+ 5.400 ft 270° 270° 9 kt METAR LFRS 121530Z AUTO 27009KT 240V300 9999 FEW027 BKN054 OVC068 19/13 Q1017 TEMPO BKN025TCU
17:00
V
18 °C 10 km+ 5.000 ft 280° 280° 12 kt METAR LFRS 121500Z AUTO 28012KT 9999 SCT028 SCT034 BKN050 18/13 Q1017 TEMPO BKN025TCU
16:30
V
19 °C 10 km+ 6.400 ft 270° 270° 12 kt METAR LFRS 121430Z AUTO 27012KT 240V310 9999 FEW030 SCT040 BKN064 19/12 Q1017 TEMPO BKN025TCU
16:00
V
19 °C 10 km+ 3.700 ft 280° 280° 12 kt METAR LFRS 121400Z AUTO 28012KT 230V320 9999 SCT030 BKN037 BKN046 19/12 Q1017 TEMPO BKN025TCU
15:30
V
20 °C 10 km+ 4.000 ft 270° 270° 12 kt METAR LFRS 121330Z AUTO 27012KT 9999 FEW032 BKN040 BKN049 20/13 Q1017 TEMPO BKN025TCU
15:00
V
19 °C 10 km+ 3.300 ft 270° 270° 10 kt METAR LFRS 121300Z AUTO 27010KT 9999 BKN033 BKN043 BKN056 19/12 Q1017 TEMPO BKN025TCU
14:30
V
18 °C 10 km+ 5.600 ft 270° 270° 11 kt METAR LFRS 121230Z AUTO 27011KT 220V310 9999 SCT032 BKN056 18/12 Q1017 TEMPO BKN025TCU
14:00
V
18 °C 10 km+ 5.200 ft 270° 270° 10 kt METAR LFRS 121200Z AUTO 27010KT 240V300 9999 FEW029 BKN052 18/12 Q1018 NOSIG
13:30
V
18 °C 10 km+ 4.700 ft 270° 270° 11 kt METAR LFRS 121130Z AUTO 27011KT 9999 SCT031 SCT040 BKN047 18/11 Q1017 NOSIG
13:00
V
18 °C 10 km+ 4.300 ft 280° 280° 8 kt METAR LFRS 121100Z AUTO 28008KT 240V300 9999 SCT031 BKN043 BKN050 18/12 Q1018 TEMPO 4500 SHRA BKN025TCU
12:30
V
18 °C 10 km+ 4.000 ft 290° 290° 7 kt METAR LFRS 121030Z AUTO 29007KT 250V310 9999 SCT030 BKN040 18/11 Q1017 TEMPO 4500 SHRA BKN025TCU
12:00
V
18 °C 10 km+ - 290° 290° 7 kt METAR LFRS 121000Z AUTO 29007KT 230V330 9999 SCT026 SCT033 18/12 Q1017 NOSIG
11:30
M
17 °C 10 km+ 2.200 ft 270° 270° 7 kt METAR LFRS 120930Z AUTO 27007KT 230V310 9999 BKN022 BKN030 17/12 Q1018 NOSIG
11:00
M
16 °C 10 km+ 1.600 ft 280° 280° 7 kt METAR LFRS 120900Z AUTO 28007KT 240V320 9999 BKN016 BKN028 16/13 Q1018 NOSIG
10:30
M
15 °C 10 km+ 1.300 ft 300° 300° 5 kt METAR LFRS 120830Z AUTO 30005KT 260V330 9999 BKN013 BKN019 BKN024 15/12 Q1017 BECMG SCT030
10:00
M
14 °C 10 km+ 1.000 ft 300° 300° 5 kt METAR LFRS 120800Z AUTO 30005KT 260V330 9999 BKN010 14/12 Q1018 BECMG SCT030
09:30
I
14 °C 10 km+ 800 ft 280° 280° 6 kt METAR LFRS 120730Z AUTO 28006KT 9999 OVC008 14/12 Q1018 BECMG SCT030
09:00
I
14 °C 10 km+ 600 ft 300° 300° 7 kt METAR LFRS 120700Z AUTO 30007KT 270V340 9999 BKN006 14/12 Q1017 BECMG SCT030
08:30
I
14 °C 10 km+ 600 ft 280° 280° 6 kt METAR LFRS 120630Z AUTO 28006KT 9999 BKN006 14/13 Q1017 BECMG SCT030
08:00
I
14 °C 10 km+ 700 ft 310° 310° 5 kt METAR LFRS 120600Z AUTO 31005KT 280V340 9999 BKN007 14/12 Q1017 BECMG SCT030
Segnala modifiche